createdAt,value
2019-03-16T00:01:37.094Z,9.50
2019-03-16T00:04:03.876Z,9.50
2019-03-16T00:06:30.658Z,9.60
2019-03-16T00:08:57.474Z,9.60
2019-03-16T00:11:24.268Z,9.50
2019-03-16T00:13:51.101Z,9.50
2019-03-16T00:16:17.885Z,9.50
2019-03-16T00:18:44.704Z,9.50
2019-03-16T00:21:11.483Z,9.50
2019-03-16T00:23:38.406Z,9.50
2019-03-16T00:26:05.225Z,9.50
2019-03-16T00:28:32.006Z,9.50
2019-03-16T00:30:58.862Z,9.60
2019-03-16T00:33:25.644Z,9.60
2019-03-16T00:35:52.574Z,9.50
2019-03-16T00:38:19.353Z,9.50
2019-03-16T00:40:46.176Z,9.50
2019-03-16T00:43:13.005Z,9.40
2019-03-16T00:45:39.784Z,9.40
2019-03-16T00:48:06.599Z,9.40
2019-03-16T00:50:33.388Z,9.40
2019-03-16T00:53:00.205Z,9.40
2019-03-16T00:55:27.028Z,9.40
2019-03-16T00:57:54.303Z,9.30
2019-03-16T01:00:21.129Z,9.40
2019-03-16T01:02:47.909Z,9.40
2019-03-16T01:05:14.933Z,9.30
2019-03-16T01:07:41.723Z,9.40
2019-03-16T01:10:09.437Z,9.40
2019-03-16T01:12:36.262Z,9.40
2019-03-16T01:15:05.157Z,9.50
2019-03-16T01:17:31.982Z,9.50
2019-03-16T01:20:00.419Z,9.40
2019-03-16T01:22:27.288Z,9.40
2019-03-16T01:24:54.070Z,9.40
2019-03-16T01:27:20.888Z,9.50
2019-03-16T01:29:47.781Z,9.40
2019-03-16T01:32:14.685Z,9.40
2019-03-16T01:34:44.023Z,9.40
2019-03-16T01:37:10.268Z,9.50
2019-03-16T01:39:37.124Z,9.50
2019-03-16T01:42:04.017Z,9.40
2019-03-16T01:44:30.877Z,9.40
2019-03-16T01:46:58.069Z,9.40
2019-03-16T01:49:24.887Z,9.40
2019-03-16T01:51:51.671Z,9.40
2019-03-16T01:54:19.393Z,9.50
2019-03-16T01:56:46.176Z,9.60
2019-03-16T01:59:12.988Z,9.50
2019-03-16T02:01:39.814Z,9.50
2019-03-16T02:04:06.597Z,9.50
2019-03-16T02:06:33.417Z,9.40
2019-03-16T02:09:00.255Z,9.40
2019-03-16T02:11:27.040Z,9.40
2019-03-16T02:13:53.869Z,9.30
2019-03-16T02:16:20.684Z,9.30
2019-03-16T02:18:47.465Z,9.40
2019-03-16T02:21:14.286Z,9.40
2019-03-16T02:23:41.100Z,9.30
2019-03-16T02:26:07.876Z,9.30
2019-03-16T02:28:34.692Z,9.40
2019-03-16T02:31:01.517Z,9.30
2019-03-16T02:33:28.297Z,9.30
2019-03-16T02:35:55.114Z,9.30
2019-03-16T02:38:21.934Z,9.30
2019-03-16T02:40:48.733Z,9.30
2019-03-16T02:43:17.241Z,9.30
2019-03-16T02:45:44.294Z,9.30
2019-03-16T02:48:11.098Z,9.30
2019-03-16T02:50:37.910Z,9.30
2019-03-16T02:53:04.727Z,9.30
2019-03-16T02:55:31.523Z,9.30
2019-03-16T02:57:59.499Z,9.20
2019-03-16T03:00:28.796Z,9.30
2019-03-16T03:02:56.238Z,9.30
2019-03-16T03:05:24.984Z,9.30
2019-03-16T03:07:51.769Z,9.20
2019-03-16T03:10:18.586Z,9.20
2019-03-16T03:12:45.510Z,9.20
2019-03-16T03:15:12.494Z,9.30
2019-03-16T03:17:39.335Z,9.30
2019-03-16T03:20:07.626Z,9.30
2019-03-16T03:22:34.430Z,9.30
2019-03-16T03:25:01.237Z,9.20
2019-03-16T03:27:28.054Z,9.20
2019-03-16T03:29:57.302Z,9.20
2019-03-16T03:32:23.458Z,9.20
2019-03-16T03:34:50.274Z,9.10
2019-03-16T03:37:17.050Z,9.10
2019-03-16T03:39:43.885Z,9.20
2019-03-16T03:42:10.706Z,9.20
2019-03-16T03:44:37.522Z,9.20
2019-03-16T03:47:04.351Z,9.30
2019-03-16T03:49:31.130Z,9.20
2019-03-16T03:51:57.942Z,9.20
2019-03-16T03:54:24.758Z,9.30
2019-03-16T03:56:51.539Z,9.30
2019-03-16T03:59:18.361Z,9.30
2019-03-16T04:01:45.361Z,9.30
2019-03-16T04:04:15.789Z,9.40
2019-03-16T04:06:40.787Z,9.30
2019-03-16T04:09:07.607Z,9.30
2019-03-16T04:11:34.390Z,9.20
2019-03-16T04:14:01.217Z,9.20
2019-03-16T04:16:28.033Z,9.30
2019-03-16T04:18:54.816Z,9.40
2019-03-16T04:21:21.634Z,9.30
2019-03-16T04:23:50.257Z,9.20
2019-03-16T04:26:17.033Z,9.30
2019-03-16T04:28:43.861Z,9.20
2019-03-16T04:31:10.682Z,9.20
2019-03-16T04:33:37.470Z,9.30
2019-03-16T04:36:04.310Z,9.30
2019-03-16T04:38:31.129Z,9.20
2019-03-16T04:40:57.904Z,9.20
2019-03-16T04:43:24.728Z,9.20
2019-03-16T04:45:51.594Z,9.10
2019-03-16T04:48:18.377Z,9.10
2019-03-16T04:50:45.193Z,9.10
2019-03-16T04:53:12.009Z,9.10
2019-03-16T04:55:38.801Z,9.10
2019-03-16T04:58:05.617Z,9.10
2019-03-16T05:00:32.432Z,9.10
2019-03-16T05:02:59.217Z,9.10
2019-03-16T05:05:26.043Z,9.10
2019-03-16T05:07:52.860Z,9.10
2019-03-16T05:10:19.744Z,9.10
2019-03-16T05:12:46.565Z,9.10
2019-03-16T05:15:13.415Z,9.10
2019-03-16T05:17:40.195Z,9.10
2019-03-16T05:20:11.054Z,9.10
2019-03-16T05:22:37.868Z,9.10
2019-03-16T05:25:07.253Z,9.10
2019-03-16T05:27:34.073Z,9.10
2019-03-16T05:30:00.888Z,9.10
2019-03-16T05:32:27.665Z,9.20
2019-03-16T05:34:56.631Z,9.20
2019-03-16T05:37:23.076Z,9.20
2019-03-16T05:39:49.908Z,9.20
2019-03-16T05:42:16.689Z,9.30
2019-03-16T05:44:43.511Z,9.30
2019-03-16T05:47:10.333Z,9.30
2019-03-16T05:49:37.116Z,9.30
2019-03-16T05:52:03.983Z,9.30
2019-03-16T05:54:30.809Z,9.30
2019-03-16T05:56:57.588Z,9.30
2019-03-16T05:59:24.414Z,9.40
2019-03-16T06:01:51.232Z,9.40
2019-03-16T06:04:18.013Z,9.40
2019-03-16T06:06:44.832Z,9.40
2019-03-16T06:09:11.747Z,9.30
2019-03-16T06:11:38.873Z,9.40
2019-03-16T06:14:05.697Z,9.40
2019-03-16T06:16:32.512Z,9.40
2019-03-16T06:18:59.297Z,9.40
2019-03-16T06:21:26.118Z,9.50
2019-03-16T06:23:52.933Z,9.50
2019-03-16T06:26:19.717Z,9.40
2019-03-16T06:28:46.548Z,9.50
2019-03-16T06:31:13.501Z,9.50
2019-03-16T06:33:40.285Z,9.50
2019-03-16T06:36:07.106Z,9.50
2019-03-16T06:38:33.888Z,9.50
2019-03-16T06:41:00.672Z,9.50
2019-03-16T06:43:27.493Z,9.60
2019-03-16T06:45:54.388Z,9.60
2019-03-16T06:48:21.175Z,9.60
2019-03-16T06:50:47.983Z,9.50
2019-03-16T06:53:14.763Z,9.60
2019-03-16T06:55:41.593Z,9.60
2019-03-16T06:58:08.373Z,9.70
2019-03-16T07:00:35.188Z,9.70
2019-03-16T07:03:02.009Z,9.70
2019-03-16T07:05:38.422Z,9.70
2019-03-16T07:07:57.436Z,9.70
2019-03-16T07:10:24.212Z,9.70
2019-03-16T07:12:51.034Z,9.70
2019-03-16T07:15:17.873Z,9.70
2019-03-16T07:17:44.693Z,9.70
2019-03-16T07:20:12.939Z,9.70
2019-03-16T07:22:39.700Z,9.70
2019-03-16T07:25:06.823Z,9.70
2019-03-16T07:27:33.609Z,9.70
2019-03-16T07:30:00.470Z,9.80
2019-03-16T07:32:27.344Z,9.80
2019-03-16T07:34:54.228Z,9.80
2019-03-16T07:37:21.142Z,9.80
2019-03-16T07:39:48.082Z,9.90
2019-03-16T07:42:14.994Z,9.90
2019-03-16T07:44:41.836Z,9.90
2019-03-16T07:47:08.859Z,9.90
2019-03-16T07:49:38.805Z,10.00
2019-03-16T07:52:04.705Z,10.10
2019-03-16T07:54:31.632Z,10.10
2019-03-16T07:56:58.488Z,10.10
2019-03-16T07:59:25.282Z,10.20
2019-03-16T08:01:52.072Z,10.20
2019-03-16T08:04:18.896Z,10.10
2019-03-16T08:06:45.720Z,10.20
2019-03-16T08:09:12.536Z,10.20
2019-03-16T08:11:39.320Z,10.30
2019-03-16T08:14:06.155Z,10.30
2019-03-16T08:16:32.945Z,10.30
2019-03-16T08:18:59.767Z,10.30
2019-03-16T08:21:26.589Z,10.40
2019-03-16T08:23:53.914Z,10.40
2019-03-16T08:26:20.802Z,10.40
2019-03-16T08:28:47.629Z,10.40
2019-03-16T08:31:21.082Z,10.40
2019-03-16T08:33:47.909Z,10.50
2019-03-16T08:36:14.729Z,10.50
2019-03-16T08:38:41.509Z,10.50
2019-03-16T08:41:08.344Z,10.50
2019-03-16T08:43:35.158Z,10.60
2019-03-16T08:46:01.946Z,10.50
2019-03-16T08:48:28.950Z,10.50
2019-03-16T08:50:55.901Z,10.50
2019-03-16T08:53:23.001Z,10.70
2019-03-16T08:55:50.174Z,10.70
2019-03-16T08:58:17.105Z,10.70
2019-03-16T09:00:44.005Z,10.70
2019-03-16T09:03:10.967Z,10.70
2019-03-16T09:05:37.888Z,10.80
2019-03-16T09:08:04.776Z,10.90
2019-03-16T09:10:31.562Z,11.00
2019-03-16T09:12:58.377Z,10.90
2019-03-16T09:15:25.160Z,10.80
2019-03-16T09:17:51.988Z,10.90
2019-03-16T09:20:18.808Z,10.90
2019-03-16T09:22:45.615Z,10.90
2019-03-16T09:25:12.417Z,11.00
2019-03-16T09:27:39.239Z,11.10
2019-03-16T09:30:12.109Z,11.30
2019-03-16T09:32:38.928Z,11.30
2019-03-16T09:35:05.713Z,11.30
2019-03-16T09:37:32.650Z,11.30
2019-03-16T09:39:59.503Z,11.40
2019-03-16T09:42:26.268Z,11.40
2019-03-16T09:44:53.092Z,11.50
2019-03-16T09:47:19.882Z,11.50
2019-03-16T09:49:46.703Z,11.60
2019-03-16T09:52:13.520Z,11.60
2019-03-16T09:54:40.345Z,11.60
2019-03-16T09:57:07.123Z,11.70
2019-03-16T09:59:33.940Z,11.90
2019-03-16T10:02:00.720Z,12.00
2019-03-16T10:04:27.544Z,12.00
2019-03-16T10:06:54.333Z,12.00
2019-03-16T10:09:21.156Z,11.90
2019-03-16T10:11:47.972Z,12.00
2019-03-16T10:14:14.762Z,12.00
2019-03-16T10:16:41.569Z,11.90
2019-03-16T10:19:08.368Z,12.00
2019-03-16T10:21:35.180Z,12.00
2019-03-16T10:24:01.964Z,12.00
2019-03-16T10:26:28.780Z,12.10
2019-03-16T10:28:55.561Z,12.20
2019-03-16T10:31:22.401Z,12.40
2019-03-16T10:33:49.185Z,12.60
2019-03-16T10:36:16.008Z,12.60
2019-03-16T10:38:42.865Z,12.70
2019-03-16T10:41:09.757Z,12.60
2019-03-16T10:43:36.688Z,12.70
2019-03-16T10:46:03.543Z,12.80
2019-03-16T10:48:30.397Z,12.80
2019-03-16T10:50:57.233Z,12.70
2019-03-16T10:53:24.044Z,12.80
2019-03-16T10:55:50.874Z,12.80
2019-03-16T10:58:17.655Z,13.10
2019-03-16T11:00:44.483Z,13.10
2019-03-16T11:03:11.260Z,13.10
2019-03-16T11:05:38.138Z,13.20
2019-03-16T11:08:04.877Z,13.10
2019-03-16T11:10:31.707Z,12.90
2019-03-16T11:12:58.490Z,12.80
2019-03-16T11:15:25.270Z,12.70
2019-03-16T11:17:52.153Z,12.70
2019-03-16T11:20:19.024Z,12.70
2019-03-16T11:22:45.791Z,12.80
2019-03-16T11:25:12.647Z,12.80
2019-03-16T11:27:39.477Z,12.90
2019-03-16T11:30:14.724Z,12.90
2019-03-16T11:32:41.609Z,13.00
2019-03-16T11:35:09.688Z,13.20
2019-03-16T11:37:36.512Z,13.30
2019-03-16T11:40:12.275Z,13.50
2019-03-16T11:42:39.097Z,13.70
2019-03-16T11:45:08.421Z,13.70
2019-03-16T11:47:35.201Z,13.50
2019-03-16T11:50:04.166Z,13.50
2019-03-16T11:52:30.953Z,13.50
2019-03-16T11:54:57.772Z,13.50
2019-03-16T11:57:24.547Z,13.50
2019-03-16T11:59:51.363Z,13.50
2019-03-16T12:02:18.198Z,13.30
2019-03-16T12:04:44.982Z,13.40
2019-03-16T12:07:11.809Z,13.60
2019-03-16T12:09:38.593Z,13.50
2019-03-16T12:12:05.417Z,13.50
2019-03-16T12:14:32.200Z,13.60
2019-03-16T12:16:59.121Z,13.50
2019-03-16T12:19:25.910Z,13.60
2019-03-16T12:21:52.740Z,13.50
2019-03-16T12:24:19.561Z,13.30
2019-03-16T12:26:46.342Z,13.30
2019-03-16T12:29:13.155Z,13.30
2019-03-16T12:31:39.955Z,13.30
2019-03-16T12:34:06.794Z,13.30
2019-03-16T12:36:33.658Z,13.20
2019-03-16T12:39:00.442Z,13.30
2019-03-16T12:41:27.367Z,13.30
2019-03-16T12:43:54.144Z,13.40
2019-03-16T12:46:20.969Z,13.30
2019-03-16T12:48:47.745Z,13.40
2019-03-16T12:51:14.641Z,13.40
2019-03-16T12:53:41.696Z,13.50
2019-03-16T12:56:08.555Z,13.50
2019-03-16T12:58:36.042Z,13.50
2019-03-16T13:01:02.961Z,13.60
2019-03-16T13:03:30.010Z,13.50
2019-03-16T13:05:57.035Z,13.40
2019-03-16T13:08:24.001Z,13.40
2019-03-16T13:10:51.060Z,13.40
2019-03-16T13:13:18.037Z,13.40
2019-03-16T13:15:44.821Z,13.40
2019-03-16T13:18:11.619Z,13.50
2019-03-16T13:20:38.456Z,13.50
2019-03-16T13:23:05.244Z,13.60
2019-03-16T13:25:32.064Z,13.60
2019-03-16T13:27:58.867Z,13.70
2019-03-16T13:30:25.689Z,13.80
2019-03-16T13:32:52.464Z,13.90
2019-03-16T13:35:19.484Z,13.90
2019-03-16T13:37:46.330Z,13.90
2019-03-16T13:40:14.097Z,14.00
2019-03-16T13:42:40.926Z,14.20
2019-03-16T13:45:08.604Z,14.20
2019-03-16T13:47:35.424Z,14.30
2019-03-16T13:50:04.365Z,14.40
2019-03-16T13:52:31.453Z,14.40
2019-03-16T13:54:58.273Z,14.50
2019-03-16T13:57:25.424Z,14.50
2019-03-16T13:59:52.273Z,14.60
2019-03-16T14:02:19.097Z,14.70
2019-03-16T14:04:45.893Z,14.90
2019-03-16T14:07:13.313Z,15.10
2019-03-16T14:09:40.097Z,15.30
2019-03-16T14:12:06.994Z,15.30
2019-03-16T14:14:33.973Z,15.10
2019-03-16T14:17:00.888Z,14.90
2019-03-16T14:19:27.703Z,14.80
2019-03-16T14:21:54.493Z,14.80
2019-03-16T14:24:21.616Z,14.80
2019-03-16T14:26:48.434Z,14.90
2019-03-16T14:29:15.216Z,14.80
2019-03-16T14:31:42.030Z,14.70
2019-03-16T14:34:08.825Z,14.80
2019-03-16T14:36:35.644Z,14.70
2019-03-16T14:39:04.869Z,14.80
2019-03-16T14:41:31.652Z,14.70
2019-03-16T14:43:58.781Z,14.80
2019-03-16T14:46:27.513Z,14.80
2019-03-16T14:48:54.307Z,14.60
2019-03-16T14:51:21.112Z,14.60
2019-03-16T14:53:47.900Z,14.70
2019-03-16T14:56:14.688Z,14.80
2019-03-16T14:58:41.506Z,14.80
2019-03-16T15:01:08.329Z,14.80
2019-03-16T15:03:35.112Z,14.90
2019-03-16T15:06:01.931Z,15.20
2019-03-16T15:08:28.778Z,15.40
2019-03-16T15:10:55.566Z,15.70
2019-03-16T15:13:22.393Z,15.80
2019-03-16T15:15:49.249Z,15.90
2019-03-16T15:18:16.034Z,15.90
2019-03-16T15:20:42.944Z,15.90
2019-03-16T15:23:09.775Z,15.90
2019-03-16T15:25:36.575Z,15.90
2019-03-16T15:28:03.393Z,16.00
2019-03-16T15:30:30.229Z,15.90
2019-03-16T15:33:00.170Z,15.80
2019-03-16T15:35:25.652Z,15.80
2019-03-16T15:37:52.447Z,15.70
2019-03-16T15:40:19.270Z,15.80
2019-03-16T15:42:46.046Z,15.70
2019-03-16T15:45:29.872Z,15.70
2019-03-16T15:47:56.655Z,15.70
2019-03-16T15:50:24.685Z,15.70
2019-03-16T15:52:51.504Z,15.70
2019-03-16T15:55:18.289Z,15.70
2019-03-16T15:57:45.114Z,15.70
2019-03-16T16:00:16.197Z,15.60
2019-03-16T16:02:43.170Z,15.50
2019-03-16T16:05:10.193Z,15.50
2019-03-16T16:07:36.978Z,15.40
2019-03-16T16:10:14.640Z,15.40
2019-03-16T16:12:41.539Z,15.30
2019-03-16T16:15:09.823Z,15.30
2019-03-16T16:17:36.636Z,15.30
2019-03-16T16:20:06.521Z,15.10
2019-03-16T16:22:33.351Z,15.00
2019-03-16T16:25:00.469Z,14.80
2019-03-16T16:27:27.362Z,14.70
2019-03-16T16:29:54.180Z,14.50
2019-03-16T16:32:20.965Z,14.40
2019-03-16T16:34:47.797Z,14.30
2019-03-16T16:37:14.590Z,14.20
2019-03-16T16:39:41.413Z,14.10
2019-03-16T16:42:08.196Z,14.10
2019-03-16T16:44:35.014Z,14.10
2019-03-16T16:47:01.811Z,14.00
2019-03-16T16:49:28.641Z,13.90
2019-03-16T16:51:55.421Z,13.90
2019-03-16T16:54:22.447Z,13.90
2019-03-16T16:56:49.256Z,13.90
2019-03-16T16:59:16.248Z,13.80
2019-03-16T17:01:43.060Z,13.70
2019-03-16T17:04:09.864Z,13.60
2019-03-16T17:06:36.685Z,13.50
2019-03-16T17:09:05.544Z,13.30
2019-03-16T17:11:32.332Z,13.20
2019-03-16T17:13:59.148Z,13.10
2019-03-16T17:16:25.974Z,13.00
2019-03-16T17:18:52.752Z,12.90
2019-03-16T17:21:19.569Z,12.90
2019-03-16T17:23:46.398Z,12.80
2019-03-16T17:26:13.183Z,12.70
2019-03-16T17:28:40.005Z,12.70
2019-03-16T17:31:11.101Z,12.70
2019-03-16T17:33:37.917Z,12.60
2019-03-16T17:36:04.752Z,12.50
2019-03-16T17:38:31.561Z,12.50
2019-03-16T17:40:58.345Z,12.40
2019-03-16T17:43:25.173Z,12.30
2019-03-16T17:45:51.985Z,12.20
2019-03-16T17:48:18.769Z,12.00
2019-03-16T17:50:45.596Z,12.00
2019-03-16T17:53:12.429Z,11.80
2019-03-16T17:55:39.214Z,11.70
2019-03-16T17:58:06.038Z,11.60
2019-03-16T18:00:32.853Z,11.50
2019-03-16T18:02:59.642Z,11.30
2019-03-16T18:05:26.461Z,11.20
2019-03-16T18:07:53.297Z,11.00
2019-03-16T18:10:22.074Z,10.90
2019-03-16T18:12:48.945Z,10.70
2019-03-16T18:15:20.283Z,10.60
2019-03-16T18:17:47.085Z,10.60
2019-03-16T18:20:18.746Z,10.50
2019-03-16T18:22:48.693Z,10.30
2019-03-16T18:25:16.078Z,10.20
2019-03-16T18:27:43.100Z,10.20
2019-03-16T18:30:18.204Z,10.00
2019-03-16T18:32:45.020Z,10.00
2019-03-16T18:35:13.996Z,9.90
2019-03-16T18:37:40.766Z,9.80
2019-03-16T18:40:12.689Z,9.80
2019-03-16T18:42:39.509Z,9.80
2019-03-16T18:45:12.868Z,9.80
2019-03-16T18:47:39.681Z,9.70
2019-03-16T18:50:06.618Z,9.70
2019-03-16T18:52:33.396Z,9.70
2019-03-16T18:55:00.375Z,9.60
2019-03-16T18:57:27.246Z,9.60
2019-03-16T18:59:54.036Z,9.50
2019-03-16T19:02:21.138Z,9.50
2019-03-16T19:04:47.976Z,9.60
2019-03-16T19:07:14.766Z,9.60
2019-03-16T19:09:41.581Z,9.70
2019-03-16T19:12:08.451Z,9.90
2019-03-16T19:14:35.233Z,10.00
2019-03-16T19:17:03.993Z,10.10
2019-03-16T19:19:30.889Z,10.20
2019-03-16T19:21:57.685Z,10.30
2019-03-16T19:24:24.517Z,10.30
2019-03-16T19:26:51.348Z,10.10
2019-03-16T19:29:18.140Z,10.00
2019-03-16T19:31:44.977Z,9.90
2019-03-16T19:34:11.809Z,9.90
2019-03-16T19:36:38.589Z,9.70
2019-03-16T19:39:05.400Z,9.60
2019-03-16T19:41:32.221Z,9.50
2019-03-16T19:43:59.008Z,9.50
2019-03-16T19:46:25.837Z,9.40
2019-03-16T19:48:52.668Z,9.30
2019-03-16T19:51:19.461Z,9.20
2019-03-16T19:53:46.278Z,9.10
2019-03-16T19:56:13.096Z,9.00
2019-03-16T19:58:39.980Z,8.90
2019-03-16T20:01:06.793Z,8.90
2019-03-16T20:03:33.615Z,8.80
2019-03-16T20:06:00.398Z,8.70
2019-03-16T20:08:27.212Z,8.70
2019-03-16T20:11:05.622Z,8.60
2019-03-16T20:13:22.670Z,8.60
2019-03-16T20:15:49.456Z,8.70
2019-03-16T20:18:16.272Z,8.70
2019-03-16T20:20:43.097Z,8.80
2019-03-16T20:23:09.882Z,8.80
2019-03-16T20:25:36.707Z,8.80
2019-03-16T20:28:03.488Z,8.80
2019-03-16T20:30:30.319Z,8.80
2019-03-16T20:33:03.868Z,8.90
2019-03-16T20:35:25.737Z,9.00
2019-03-16T20:37:52.531Z,8.90
2019-03-16T20:40:19.358Z,8.90
2019-03-16T20:42:46.182Z,8.90
2019-03-16T20:45:14.450Z,8.90
2019-03-16T20:47:41.376Z,8.90
2019-03-16T20:50:14.497Z,8.90
2019-03-16T20:52:41.289Z,8.90
2019-03-16T20:55:09.112Z,9.00
2019-03-16T20:57:36.100Z,9.00
2019-03-16T21:00:06.184Z,9.00
2019-03-16T21:02:33.005Z,8.90
2019-03-16T21:04:59.883Z,8.80
2019-03-16T21:07:27.512Z,8.80
2019-03-16T21:09:54.996Z,8.80
2019-03-16T21:12:21.862Z,8.70
2019-03-16T21:14:48.661Z,8.60
2019-03-16T21:17:15.482Z,8.60
2019-03-16T21:19:42.255Z,8.60
2019-03-16T21:22:09.077Z,8.60
2019-03-16T21:24:35.906Z,8.60
2019-03-16T21:27:04.504Z,8.80
2019-03-16T21:29:31.351Z,9.10
2019-03-16T21:31:58.120Z,9.40
2019-03-16T21:34:25.837Z,9.50
2019-03-16T21:36:52.617Z,9.60
2019-03-16T21:39:19.449Z,9.60
2019-03-16T21:41:46.245Z,9.50
2019-03-16T21:44:13.061Z,9.50
2019-03-16T21:46:39.860Z,9.40
2019-03-16T21:49:08.144Z,9.30
2019-03-16T21:51:34.928Z,9.30
2019-03-16T21:54:01.749Z,9.20
2019-03-16T21:56:29.665Z,9.20
2019-03-16T21:58:56.453Z,9.20
2019-03-16T22:01:23.773Z,9.20
2019-03-16T22:03:50.592Z,9.20
2019-03-16T22:06:17.377Z,9.30
2019-03-16T22:08:44.199Z,9.40
2019-03-16T22:11:11.016Z,9.40
2019-03-16T22:13:37.912Z,9.40
2019-03-16T22:16:04.725Z,9.40
2019-03-16T22:18:31.635Z,9.50
2019-03-16T22:20:58.440Z,9.40
2019-03-16T22:23:25.575Z,9.40
2019-03-16T22:25:54.319Z,9.30
2019-03-16T22:28:21.173Z,9.20
2019-03-16T22:30:48.103Z,9.20
2019-03-16T22:33:14.925Z,9.10
2019-03-16T22:35:41.713Z,9.10
2019-03-16T22:38:08.549Z,9.00
2019-03-16T22:40:35.333Z,9.00
2019-03-16T22:43:02.170Z,9.00
2019-03-16T22:45:28.968Z,8.90
2019-03-16T22:47:55.860Z,8.90
2019-03-16T22:50:22.751Z,8.90
2019-03-16T22:52:49.643Z,8.90
2019-03-16T22:55:16.632Z,9.00
2019-03-16T22:57:43.612Z,8.90
2019-03-16T23:00:19.497Z,8.90
2019-03-16T23:02:46.361Z,9.00
2019-03-16T23:05:14.156Z,9.10
2019-03-16T23:07:40.986Z,9.00
2019-03-16T23:10:09.705Z,8.90
2019-03-16T23:12:36.536Z,8.80
2019-03-16T23:15:06.288Z,8.70
2019-03-16T23:17:33.240Z,8.70
2019-03-16T23:20:00.037Z,8.60
2019-03-16T23:22:26.860Z,8.60
2019-03-16T23:24:53.670Z,8.50
2019-03-16T23:27:20.452Z,8.50
2019-03-16T23:29:47.266Z,8.40
2019-03-16T23:32:14.101Z,8.40
2019-03-16T23:34:40.892Z,8.40
2019-03-16T23:37:07.712Z,8.40
2019-03-16T23:39:34.492Z,8.30
2019-03-16T23:42:01.321Z,8.30
2019-03-16T23:44:28.100Z,8.40
2019-03-16T23:46:54.929Z,8.50
2019-03-16T23:49:21.717Z,8.60
2019-03-16T23:51:48.546Z,8.50
2019-03-16T23:54:15.330Z,8.50
2019-03-16T23:56:42.445Z,8.50
2019-03-16T23:59:09.242Z,8.50
